createdAt,value
2022-10-18T00:01:31.831Z,22.27
2022-10-18T00:03:59.586Z,21.07
2022-10-18T00:06:27.509Z,21.73
2022-10-18T00:08:56.455Z,26.00
2022-10-18T00:11:24.350Z,22.90
2022-10-18T00:13:52.002Z,19.87
2022-10-18T00:16:20.073Z,23.43
2022-10-18T00:18:48.891Z,28.50
2022-10-18T00:21:19.148Z,20.10
2022-10-18T00:23:47.751Z,28.17
2022-10-18T00:26:20.093Z,21.33
2022-10-18T00:28:50.691Z,26.63
2022-10-18T00:31:20.381Z,29.80
2022-10-18T00:33:50.659Z,36.60
2022-10-18T00:36:18.783Z,26.70
2022-10-18T00:38:47.226Z,23.30
2022-10-18T00:41:18.696Z,29.90
2022-10-18T00:43:54.062Z,28.83
2022-10-18T00:46:21.772Z,25.70
2022-10-18T00:48:49.933Z,30.13
2022-10-18T00:51:18.263Z,35.70
2022-10-18T00:53:46.269Z,25.70
2022-10-18T00:56:14.158Z,30.20
2022-10-18T00:58:44.026Z,31.07
2022-10-18T01:01:11.768Z,28.77
2022-10-18T01:03:39.433Z,31.83
2022-10-18T01:06:08.841Z,31.63
2022-10-18T01:09:00.846Z,25.87
2022-10-18T01:11:50.031Z,30.60
2022-10-18T01:14:27.587Z,34.37
2022-10-18T01:17:05.309Z,34.00
2022-10-18T01:19:50.293Z,38.77
2022-10-18T01:22:21.780Z,32.77
2022-10-18T01:25:19.510Z,37.60
2022-10-18T01:27:56.098Z,39.63
2022-10-18T01:30:48.454Z,32.10
2022-10-18T01:33:24.630Z,44.33
2022-10-18T01:35:56.263Z,32.67
2022-10-18T01:38:26.004Z,33.43
2022-10-18T01:40:54.123Z,29.30
2022-10-18T01:43:24.266Z,28.70
2022-10-18T01:45:55.019Z,33.83
2022-10-18T01:48:22.951Z,32.60
2022-10-18T01:50:50.622Z,32.60
2022-10-18T01:53:26.273Z,39.57
2022-10-18T01:56:02.619Z,28.63
2022-10-18T01:58:32.741Z,37.97
2022-10-18T02:01:06.412Z,37.03
2022-10-18T02:03:36.150Z,30.57
2022-10-18T02:06:09.164Z,43.10
2022-10-18T02:08:40.110Z,33.10
2022-10-18T02:11:09.526Z,34.80
2022-10-18T02:13:40.186Z,39.83
2022-10-18T02:16:12.039Z,33.77
2022-10-18T02:18:42.586Z,34.50
2022-10-18T02:21:12.603Z,37.50
2022-10-18T02:23:40.371Z,56.97
2022-10-18T02:26:08.290Z,46.90
2022-10-18T02:28:36.250Z,43.07
2022-10-18T02:31:11.522Z,41.23
2022-10-18T02:33:43.077Z,39.37
2022-10-18T02:36:15.085Z,37.73
2022-10-18T02:38:43.280Z,44.50
2022-10-18T02:41:10.929Z,48.07
2022-10-18T02:43:38.587Z,40.70
2022-10-18T02:46:06.894Z,50.87
2022-10-18T02:48:35.884Z,37.70
2022-10-18T02:51:03.588Z,40.37
2022-10-18T02:53:31.252Z,45.33
2022-10-18T02:55:58.892Z,44.97
2022-10-18T02:58:26.545Z,46.33
2022-10-18T03:00:54.115Z,47.83
2022-10-18T03:03:21.744Z,42.97
2022-10-18T03:05:51.689Z,43.17
2022-10-18T03:08:19.792Z,46.20
2022-10-18T03:10:48.093Z,47.83
2022-10-18T03:13:16.010Z,48.03
2022-10-18T03:15:43.768Z,50.20
2022-10-18T03:18:11.741Z,57.70
2022-10-18T03:20:39.489Z,51.83
2022-10-18T03:23:08.633Z,56.10
2022-10-18T03:25:36.279Z,50.20
2022-10-18T03:28:03.846Z,41.80
2022-10-18T03:30:31.498Z,46.43
2022-10-18T03:32:59.567Z,49.80
2022-10-18T03:35:27.501Z,51.03
2022-10-18T03:37:55.140Z,43.03
2022-10-18T03:40:24.138Z,47.20
2022-10-18T03:42:51.767Z,57.77
2022-10-18T03:45:19.372Z,46.13
2022-10-18T03:47:47.171Z,53.20
2022-10-18T03:50:14.971Z,48.87
2022-10-18T03:52:42.602Z,49.50
2022-10-18T03:55:11.150Z,44.10
2022-10-18T03:57:40.158Z,45.37
2022-10-18T04:00:09.281Z,56.40
2022-10-18T04:02:43.229Z,48.17
2022-10-18T04:05:10.937Z,57.07
2022-10-18T04:07:46.244Z,56.90
2022-10-18T04:10:14.772Z,50.00
2022-10-18T04:12:46.522Z,51.07
2022-10-18T04:15:14.911Z,52.33
2022-10-18T04:17:42.659Z,47.20
2022-10-18T04:20:11.061Z,45.23
2022-10-18T04:22:38.619Z,47.00
2022-10-18T04:25:06.933Z,45.33
2022-10-18T04:27:41.512Z,41.23
2022-10-18T04:30:11.782Z,47.50
2022-10-18T04:32:46.692Z,50.07
2022-10-18T04:35:14.630Z,47.93
2022-10-18T04:37:42.461Z,55.83
2022-10-18T04:40:10.977Z,52.30
2022-10-18T04:42:38.566Z,50.80
2022-10-18T04:45:07.117Z,61.83
2022-10-18T04:47:36.245Z,47.53
2022-10-18T04:50:04.697Z,47.37
2022-10-18T04:52:32.532Z,46.60
2022-10-18T04:55:00.116Z,44.17
2022-10-18T04:57:27.780Z,52.57
2022-10-18T04:59:55.310Z,48.03
2022-10-18T05:02:22.950Z,65.50
2022-10-18T05:04:51.867Z,52.93
2022-10-18T05:07:19.479Z,52.00
2022-10-18T05:09:47.179Z,60.37
2022-10-18T05:12:14.723Z,55.50
2022-10-18T05:14:42.278Z,67.13
2022-10-18T05:17:09.794Z,67.03
2022-10-18T05:19:37.327Z,52.73
2022-10-18T05:22:06.300Z,55.03
2022-10-18T05:24:33.781Z,65.43
2022-10-18T05:27:01.434Z,57.57
2022-10-18T05:29:29.227Z,53.73
2022-10-18T05:31:56.818Z,65.47
2022-10-18T05:34:24.737Z,68.47
2022-10-18T05:36:52.346Z,57.33
2022-10-18T05:39:21.490Z,62.57
2022-10-18T05:41:49.073Z,57.83
2022-10-18T05:44:16.666Z,49.77
2022-10-18T05:46:44.323Z,61.10
2022-10-18T05:49:12.615Z,55.53
2022-10-18T05:51:40.584Z,51.00
2022-10-18T05:54:08.313Z,66.20
2022-10-18T05:59:12.166Z,51.80
2022-10-18T06:01:43.522Z,52.27
2022-10-18T06:04:11.359Z,60.03
2022-10-18T06:06:39.535Z,63.50
2022-10-18T06:09:08.558Z,50.67
2022-10-18T06:11:38.002Z,51.23
2022-10-18T06:14:05.992Z,57.30
2022-10-18T06:16:33.615Z,53.93
2022-10-18T06:19:01.321Z,49.67
2022-10-18T06:21:28.952Z,48.10
2022-10-18T06:23:58.510Z,37.90
2022-10-18T06:26:26.922Z,46.53
2022-10-18T06:28:56.096Z,45.60
2022-10-18T06:31:23.783Z,42.97
2022-10-18T06:33:51.702Z,40.67
2022-10-18T06:36:21.973Z,45.20
2022-10-18T06:38:50.203Z,43.70
2022-10-18T06:41:19.217Z,39.63
2022-10-18T06:43:49.519Z,44.57
2022-10-18T06:46:18.535Z,44.00
2022-10-18T06:48:46.485Z,43.47
2022-10-18T06:51:15.143Z,43.57
2022-10-18T06:53:53.487Z,43.97
2022-10-18T06:56:30.969Z,49.10
2022-10-18T07:01:32.711Z,54.70
2022-10-18T07:04:00.262Z,47.03
2022-10-18T07:06:27.755Z,50.53
2022-10-18T07:08:55.319Z,46.10
2022-10-18T07:11:25.035Z,50.87
2022-10-18T07:13:53.978Z,41.87
2022-10-18T07:16:21.748Z,37.07
2022-10-18T07:18:52.165Z,38.40
2022-10-18T07:21:20.970Z,40.30
2022-10-18T07:23:49.197Z,57.77
2022-10-18T07:26:19.346Z,39.83
2022-10-18T07:28:49.294Z,53.07
2022-10-18T07:31:16.893Z,41.03
2022-10-18T07:33:51.157Z,38.70
2022-10-18T07:36:21.135Z,38.00
2022-10-18T07:38:49.002Z,41.40
2022-10-18T07:41:16.637Z,42.20
2022-10-18T07:43:46.139Z,43.33
2022-10-18T07:46:14.006Z,34.10
2022-10-18T07:48:42.132Z,38.60
2022-10-18T07:51:09.942Z,34.30
2022-10-18T07:53:39.343Z,39.07
2022-10-18T07:56:09.614Z,35.10
2022-10-18T07:58:37.932Z,37.40
2022-10-18T08:01:07.834Z,38.80
2022-10-18T08:03:35.532Z,31.13
2022-10-18T08:06:03.193Z,33.27
2022-10-18T08:08:31.041Z,41.07
2022-10-18T08:11:05.021Z,36.60
2022-10-18T08:13:32.612Z,32.97
2022-10-18T08:16:01.273Z,30.60
2022-10-18T08:18:29.166Z,32.83
2022-10-18T08:20:57.523Z,25.90
2022-10-18T08:23:25.364Z,36.57
2022-10-18T08:25:53.090Z,25.40
2022-10-18T08:28:22.088Z,34.93
2022-10-18T08:30:49.726Z,31.63
2022-10-18T08:33:17.273Z,28.47
2022-10-18T08:35:44.921Z,26.27
2022-10-18T08:38:16.608Z,29.40
2022-10-18T08:40:46.551Z,34.10
2022-10-18T08:43:21.665Z,27.50
2022-10-18T08:45:52.329Z,30.33
2022-10-18T08:48:29.420Z,32.23
2022-10-18T08:51:11.729Z,33.37
2022-10-18T08:53:45.292Z,29.40
2022-10-18T08:56:14.885Z,32.70
2022-10-18T08:58:44.968Z,24.17
2022-10-18T09:01:32.870Z,28.60
2022-10-18T09:08:14.177Z,29.43
2022-10-18T09:10:56.184Z,29.60
2022-10-18T09:14:06.924Z,31.93
2022-10-18T09:16:41.396Z,39.47
2022-10-18T09:19:22.372Z,31.90
2022-10-18T09:22:09.715Z,33.07
2022-10-18T09:27:55.095Z,33.07
2022-10-18T09:30:46.022Z,25.70
2022-10-18T09:33:49.918Z,28.77
2022-10-18T09:36:22.145Z,28.73
2022-10-18T09:39:01.833Z,26.67
2022-10-18T09:41:35.508Z,22.57
2022-10-18T09:44:16.669Z,19.20
2022-10-18T09:46:54.945Z,17.90
2022-10-18T09:49:27.370Z,28.23
2022-10-18T09:52:03.482Z,15.57
2022-10-18T09:54:44.477Z,21.10
2022-10-18T09:57:23.437Z,19.93
2022-10-18T09:59:53.338Z,27.43
2022-10-18T10:02:22.829Z,19.93
2022-10-18T10:04:54.206Z,23.73
2022-10-18T10:07:28.597Z,20.53
2022-10-18T10:10:00.201Z,19.83
2022-10-18T10:12:30.680Z,14.60
2022-10-18T10:15:09.652Z,18.40
2022-10-18T10:17:38.364Z,21.17
2022-10-18T10:20:16.771Z,22.80
2022-10-18T10:22:46.517Z,16.63
2022-10-18T10:25:22.541Z,21.67
2022-10-18T10:27:50.572Z,21.20
2022-10-18T10:30:27.552Z,26.57
2022-10-18T10:32:56.541Z,18.57
2022-10-18T10:35:52.475Z,18.33
2022-10-18T10:38:24.455Z,19.43
2022-10-18T10:40:52.165Z,20.47
2022-10-18T10:43:37.079Z,19.90
2022-10-18T10:46:08.633Z,26.13
2022-10-18T10:48:46.120Z,19.83
2022-10-18T10:51:15.400Z,19.83
2022-10-18T10:53:45.434Z,19.00
2022-10-18T10:56:20.268Z,18.73
2022-10-18T10:58:48.046Z,21.10
2022-10-18T11:01:21.525Z,19.17
2022-10-18T11:03:50.798Z,15.30
2022-10-18T11:06:41.944Z,16.47
2022-10-18T11:09:17.346Z,18.80
2022-10-18T11:11:52.401Z,19.60
2022-10-18T11:14:26.920Z,21.27
2022-10-18T11:16:58.321Z,18.03
2022-10-18T11:19:34.036Z,17.47
2022-10-18T11:22:06.062Z,14.50
2022-10-18T11:24:34.974Z,21.33
2022-10-18T11:27:07.583Z,14.40
2022-10-18T11:29:44.546Z,19.30
2022-10-18T11:32:16.150Z,16.23
2022-10-18T11:34:53.088Z,14.77
2022-10-18T11:37:39.621Z,19.00
2022-10-18T11:40:19.782Z,19.30
2022-10-18T11:42:51.886Z,16.63
2022-10-18T11:48:05.225Z,17.00
2022-10-18T11:50:37.685Z,13.97
2022-10-18T11:53:14.571Z,15.93
2022-10-18T11:55:57.068Z,15.00
2022-10-18T11:58:39.647Z,26.47
2022-10-18T12:01:14.481Z,14.90
2022-10-18T12:03:54.443Z,14.50
2022-10-18T12:06:26.176Z,16.87
2022-10-18T12:08:57.541Z,16.13
2022-10-18T12:11:28.673Z,13.77
2022-10-18T12:13:58.824Z,13.50
2022-10-18T12:16:50.071Z,8.83
2022-10-18T12:19:23.587Z,12.27
2022-10-18T12:21:55.181Z,16.10
2022-10-18T12:24:26.860Z,19.60
2022-10-18T12:26:59.054Z,14.30
2022-10-18T12:29:29.841Z,27.30
2022-10-18T12:31:59.691Z,17.13
2022-10-18T12:34:31.600Z,11.57
2022-10-18T12:37:32.425Z,12.03
2022-10-18T12:40:14.573Z,10.23
2022-10-18T12:42:45.941Z,8.40
2022-10-18T12:45:25.864Z,7.13
2022-10-18T12:47:53.518Z,9.57
2022-10-18T12:50:29.641Z,12.27
2022-10-18T12:53:13.481Z,9.03
2022-10-18T12:58:31.555Z,13.07
2022-10-18T13:01:02.251Z,13.80
2022-10-18T13:03:39.557Z,10.90
2022-10-18T13:06:07.353Z,8.30
2022-10-18T13:08:43.102Z,9.10
2022-10-18T13:11:36.174Z,8.90
2022-10-18T13:14:20.543Z,8.63
2022-10-18T13:16:50.359Z,12.13
2022-10-18T13:19:29.312Z,14.50
2022-10-18T13:22:10.415Z,8.23
2022-10-18T13:24:40.204Z,9.57
2022-10-18T13:27:42.688Z,12.83
2022-10-18T13:30:28.041Z,8.70
2022-10-18T13:33:02.053Z,10.83
2022-10-18T13:35:51.703Z,16.27
2022-10-18T13:38:44.830Z,10.97
2022-10-18T13:41:14.525Z,14.80
2022-10-18T13:44:12.227Z,17.23
2022-10-18T13:47:19.649Z,12.03
2022-10-18T13:49:59.667Z,23.33
2022-10-18T13:52:32.197Z,9.33
2022-10-18T13:55:17.208Z,14.60
2022-10-18T13:57:54.486Z,12.43
2022-10-18T14:00:33.284Z,13.03
2022-10-18T14:03:31.921Z,16.87
2022-10-18T14:06:07.626Z,10.23
2022-10-18T14:08:36.623Z,12.23
2022-10-18T14:11:07.305Z,15.77
2022-10-18T14:13:39.855Z,9.90
2022-10-18T14:16:20.528Z,25.27
2022-10-18T14:18:52.797Z,10.97
2022-10-18T14:21:28.751Z,10.00
2022-10-18T14:23:58.163Z,13.20
2022-10-18T14:26:29.085Z,8.13
2022-10-18T14:29:05.060Z,6.70
2022-10-18T14:31:34.270Z,16.07
2022-10-18T14:34:02.066Z,19.00
2022-10-18T14:36:35.582Z,15.83
2022-10-18T14:39:05.332Z,9.87
2022-10-18T14:41:34.114Z,10.83
2022-10-18T14:44:19.319Z,14.00
2022-10-18T14:46:51.018Z,17.40
2022-10-18T14:49:20.313Z,16.73
2022-10-18T14:51:49.944Z,10.03
2022-10-18T14:54:19.360Z,11.23
2022-10-18T14:56:47.250Z,17.20
2022-10-18T14:59:19.766Z,11.83
2022-10-18T15:01:57.248Z,14.20
2022-10-18T15:04:31.011Z,10.80
2022-10-18T15:06:59.494Z,13.00
2022-10-18T15:12:01.464Z,13.73
2022-10-18T15:14:30.142Z,12.07
2022-10-18T15:17:03.951Z,9.60
2022-10-18T15:19:35.158Z,13.47
2022-10-18T15:22:31.343Z,11.33
2022-10-18T15:25:27.947Z,14.53
2022-10-18T15:27:59.722Z,12.83
2022-10-18T15:30:30.111Z,16.73
2022-10-18T15:33:01.441Z,16.37
2022-10-18T15:35:32.452Z,18.40
2022-10-18T15:38:03.451Z,15.10
2022-10-18T15:40:41.830Z,16.17
2022-10-18T15:43:38.054Z,11.03
2022-10-18T15:46:07.628Z,19.50
2022-10-18T15:48:39.696Z,10.70
2022-10-18T15:51:09.777Z,15.07
2022-10-18T15:53:46.667Z,13.50
2022-10-18T15:56:33.605Z,15.03
2022-10-18T15:59:04.112Z,11.27
2022-10-18T16:01:37.853Z,11.40
2022-10-18T16:04:23.366Z,7.40
2022-10-18T16:06:51.382Z,20.10
2022-10-18T16:09:20.698Z,13.13
2022-10-18T16:11:54.310Z,17.00
2022-10-18T16:14:25.023Z,12.57
2022-10-18T16:16:59.686Z,12.17
2022-10-18T16:19:28.822Z,13.17
2022-10-18T16:21:56.667Z,16.27
2022-10-18T16:24:24.362Z,9.57
2022-10-18T16:26:52.155Z,9.30
2022-10-18T16:29:24.304Z,13.50
2022-10-18T16:31:53.697Z,10.10
2022-10-18T16:34:21.502Z,11.70
2022-10-18T16:36:50.842Z,13.80
2022-10-18T16:39:20.449Z,10.00
2022-10-18T16:41:48.666Z,13.20
2022-10-18T16:44:17.236Z,16.30
2022-10-18T16:46:45.294Z,10.80
2022-10-18T16:51:54.317Z,11.33
2022-10-18T16:54:22.223Z,10.70
2022-10-18T16:56:50.161Z,9.50
2022-10-18T16:59:25.252Z,17.03
2022-10-18T17:01:53.271Z,9.57
2022-10-18T17:04:21.048Z,10.03
2022-10-18T17:06:48.975Z,12.70
2022-10-18T17:09:18.561Z,11.07
2022-10-18T17:11:46.592Z,9.17
2022-10-18T17:14:14.433Z,9.23
2022-10-18T17:16:45.436Z,13.87
2022-10-18T17:19:16.332Z,12.53
2022-10-18T17:21:44.023Z,9.33
2022-10-18T17:24:11.937Z,16.70
2022-10-18T17:26:41.809Z,11.57
2022-10-18T17:29:10.501Z,16.70
2022-10-18T17:31:39.184Z,16.00
2022-10-18T17:34:06.876Z,14.80
2022-10-18T17:36:35.461Z,16.13
2022-10-18T17:39:03.554Z,14.30
2022-10-18T17:41:32.394Z,10.33
2022-10-18T17:44:03.326Z,9.70
2022-10-18T17:46:31.136Z,9.93
2022-10-18T17:48:58.887Z,13.47
2022-10-18T17:51:26.618Z,12.07
2022-10-18T17:53:54.697Z,17.60
2022-10-18T17:56:22.399Z,7.80
2022-10-18T17:58:51.908Z,11.80
2022-10-18T18:01:23.016Z,14.73
2022-10-18T18:03:51.078Z,16.60
2022-10-18T18:06:20.509Z,11.37
2022-10-18T18:08:49.354Z,18.97
2022-10-18T18:11:29.421Z,9.70
2022-10-18T18:14:01.840Z,10.20
2022-10-18T18:16:31.276Z,11.87
2022-10-18T18:18:59.670Z,12.00
2022-10-18T18:21:28.085Z,11.10
2022-10-18T18:23:56.194Z,17.30
2022-10-18T18:26:24.127Z,14.07
2022-10-18T18:28:51.921Z,13.67
2022-10-18T18:31:23.396Z,16.10
2022-10-18T18:33:53.137Z,11.43
2022-10-18T18:36:21.337Z,13.63
2022-10-18T18:38:49.989Z,10.37
2022-10-18T18:41:21.383Z,18.30
2022-10-18T18:43:52.163Z,8.70
2022-10-18T18:46:19.951Z,14.10
2022-10-18T18:48:47.977Z,9.33
2022-10-18T18:51:18.735Z,10.67
2022-10-18T18:53:47.966Z,12.50
2022-10-18T18:56:17.765Z,8.20
2022-10-18T18:58:46.808Z,6.73
2022-10-18T19:01:17.290Z,18.13
2022-10-18T19:03:46.259Z,12.47
2022-10-18T19:06:18.165Z,12.63
2022-10-18T19:08:46.211Z,10.37
2022-10-18T19:11:15.727Z,14.47
2022-10-18T19:13:43.639Z,12.77
2022-10-18T19:16:19.235Z,9.97
2022-10-18T19:18:51.823Z,8.93
2022-10-18T19:21:21.289Z,14.13
2022-10-18T19:23:50.085Z,15.23
2022-10-18T19:26:28.760Z,14.77
2022-10-18T19:28:56.729Z,13.10
2022-10-18T19:31:24.474Z,5.90
2022-10-18T19:33:59.326Z,6.23
2022-10-18T19:36:29.350Z,9.07
2022-10-18T19:38:57.272Z,11.90
2022-10-18T19:43:53.594Z,9.50
2022-10-18T19:46:21.320Z,6.10
2022-10-18T19:48:49.116Z,10.10
2022-10-18T19:51:20.314Z,8.00
2022-10-18T19:53:53.102Z,10.80
2022-10-18T19:56:23.219Z,10.80
2022-10-18T19:58:51.326Z,11.40
2022-10-18T20:01:20.041Z,6.87
2022-10-18T20:03:48.359Z,6.23
2022-10-18T20:06:16.267Z,9.83
2022-10-18T20:08:44.337Z,9.80
2022-10-18T20:11:15.104Z,9.20
2022-10-18T20:13:42.821Z,7.63
2022-10-18T20:16:12.481Z,6.53
2022-10-18T20:18:40.187Z,9.13
2022-10-18T20:21:09.067Z,9.90
2022-10-18T20:23:37.413Z,8.53
2022-10-18T20:26:07.547Z,10.40
2022-10-18T20:28:38.286Z,14.40
2022-10-18T20:31:07.732Z,14.83
2022-10-18T20:33:36.369Z,11.23
2022-10-18T20:36:06.152Z,15.20
2022-10-18T20:38:34.692Z,10.53
2022-10-18T20:41:06.790Z,15.20
2022-10-18T20:43:36.130Z,12.23
2022-10-18T20:46:04.966Z,20.30
2022-10-18T20:48:33.389Z,7.50
2022-10-18T20:51:04.049Z,7.40
2022-10-18T20:53:31.626Z,7.23
2022-10-18T20:56:06.759Z,12.00
2022-10-18T20:58:36.540Z,11.17
2022-10-18T21:01:08.885Z,8.87
2022-10-18T21:03:38.376Z,10.80
2022-10-18T21:06:10.473Z,5.57
2022-10-18T21:08:38.655Z,7.33
2022-10-18T21:11:07.097Z,8.47
2022-10-18T21:13:36.117Z,11.80
2022-10-18T21:16:04.557Z,6.03
2022-10-18T21:18:33.784Z,5.57
2022-10-18T21:21:08.880Z,6.97
2022-10-18T21:23:36.538Z,11.37
2022-10-18T21:26:04.413Z,11.47
2022-10-18T21:28:32.001Z,11.47
2022-10-18T21:31:10.775Z,7.80
2022-10-18T21:33:38.373Z,8.90
2022-10-18T21:36:06.506Z,11.53
2022-10-18T21:38:34.258Z,6.77
2022-10-18T21:41:01.892Z,10.47
2022-10-18T21:43:29.979Z,12.37
2022-10-18T21:45:59.037Z,10.47
2022-10-18T21:48:28.514Z,8.47
2022-10-18T21:50:56.207Z,15.63
2022-10-18T21:53:23.803Z,9.27
2022-10-18T21:55:51.506Z,10.27
2022-10-18T21:58:19.644Z,12.13
2022-10-18T22:00:47.328Z,10.77
2022-10-18T22:03:14.948Z,10.33
2022-10-18T22:05:43.952Z,12.40
2022-10-18T22:08:11.578Z,9.57
2022-10-18T22:10:39.228Z,7.63
2022-10-18T22:13:06.890Z,7.43
2022-10-18T22:15:34.453Z,6.87
2022-10-18T22:18:02.041Z,5.47
2022-10-18T22:20:29.821Z,5.33
2022-10-18T22:22:58.838Z,7.73
2022-10-18T22:25:26.519Z,13.27
2022-10-18T22:27:54.078Z,10.43
2022-10-18T22:30:21.766Z,7.40
2022-10-18T22:32:49.406Z,8.00
2022-10-18T22:35:17.355Z,8.67
2022-10-18T22:37:44.936Z,10.47
2022-10-18T22:40:14.403Z,9.80
2022-10-18T22:42:42.165Z,8.60
2022-10-18T22:45:10.259Z,7.80
2022-10-18T22:47:38.065Z,8.63
2022-10-18T22:50:06.429Z,6.83
2022-10-18T22:52:34.600Z,7.80
2022-10-18T22:55:02.561Z,10.80
2022-10-18T22:57:31.939Z,6.00
2022-10-18T22:59:59.755Z,9.63
2022-10-18T23:02:27.506Z,9.27
2022-10-18T23:04:55.273Z,14.00
2022-10-18T23:07:22.841Z,6.03
2022-10-18T23:09:50.713Z,13.23
2022-10-18T23:12:18.358Z,9.03
2022-10-18T23:14:47.220Z,7.00
2022-10-18T23:17:14.963Z,9.37
2022-10-18T23:19:42.624Z,14.80
2022-10-18T23:22:10.213Z,9.73
2022-10-18T23:24:37.799Z,10.77
2022-10-18T23:27:05.473Z,13.97
2022-10-18T23:29:33.153Z,7.10
2022-10-18T23:32:02.162Z,9.90
2022-10-18T23:34:32.123Z,14.33
2022-10-18T23:36:59.620Z,9.43
2022-10-18T23:39:27.252Z,9.70
2022-10-18T23:41:54.958Z,7.07
2022-10-18T23:44:22.508Z,8.20
2022-10-18T23:46:50.494Z,9.20
2022-10-18T23:49:19.337Z,12.70
2022-10-18T23:51:46.938Z,9.73
2022-10-18T23:54:14.450Z,8.70
2022-10-18T23:56:41.928Z,18.80
2022-10-18T23:59:09.425Z,6.53
